AirNav   Everest Fuels
 
 929 users online  

D80 Olcott-Newfane Airport
Olcott, New York, USA

GOING TO OLCOTT?


FAA INFORMATION EFFECTIVE 10 OCTOBER 2019

Location

FAA Identifier: D80
Lat/Long: 43-19-15.2010N 078-43-44.1260W
43-19.253350N 078-43.735433W
43.3208892,-78.7289239
(estimated)
Elevation: 315 ft. / 96 m (estimated)
Variation: 10W (1985)
From city: 2 miles SW of OLCOTT, NY
Time zone: UTC -4 (UTC -5 during Standard Time)
Zip code: 14028

Airport Operations

Airport use: CLOSED INDEFINITELY
Activation date: 05/1945
Control tower: no
ARTCC: CLEVELAND CENTER
FSS: BUFFALO FLIGHT SERVICE STATION
NOTAMs facility: BUF (NOTAM-D service available)
Attendance: DAYLIGHT HOURS
Wind indicator: no
Segmented circle: no

Airport Communications

CTAF/UNICOM: 122.7
WX ASOS at IAG (16 nm SW): PHONE 716-297-6984

Nearby radio navigation aids

VOR radial/distance  VOR name  Freq  Var
BUFr359/23.8BUFFALO VOR/DME116.4008W

 
NDB name  Hdg/Dist  Freq  Var  ID
KATHI031/13.632910WIA .. .-

Airport Services

Parking: hangars and tiedowns
Bottled oxygen: NONE
Bulk oxygen: NONE

Runway Information

Runway 9/27

Dimensions: 2500 x 60 ft. / 762 x 18 m
Surface: turf, in good condition
RUNWAY 9  RUNWAY 27
Traffic pattern: leftleft
Obstructions: 82 ft. trees
TREES OVERHANG RWY EDGES FOR FIRST 600 FT.
5 ft. pole, 54 ft. right of centerline

Runway 6/24

Dimensions: 2408 x 30 ft. / 734 x 9 m
Surface: turf, in good condition
RUNWAY 6  RUNWAY 24
Traffic pattern: leftleft
Obstructions: 68 ft. trees
TREES OVERHANG RWY EDGES FOR FIRST 800 FT.
80 ft. trees, 377 ft. from runway, 101 ft. right of centerline, 4:1 slope to clear

Airport Ownership and Management from official FAA records

Ownership: Privately-owned
Owner: BRUCE ERCK
1800 WEST CREEK
BURT, NY 14028
Phone 716-778-6700
Manager: BRUCE ERCK
1800 WEST CREEK
BURT, NY 14028
Phone 716-778-6700

Additional Remarks

POWERLINE OFF END OF RYS 24 & 27; +35 FT HIGH AS CLOSE AS 250 FT FM RY END ON CNTRLN.
DEER ON & INVOF ARPT.
ULTRALIGHT ACTIVITIES ON ARPT.
RWY 27: 14-100 FT TREES; 5-650 FT FM THR; 45-135 FT LEFT AND RIGHT OF CNTRLN.
RWY 9: 31-100 FT TREES; ACRS THLD AND ALONG SIDES OF RWY FOR 600 FT.
RWY 6: 72-80 FT TREES; ACRS THLD AND ALONG SIDES OF RWY FOR 800 FT.
FOR CD CTC CLEVELAND ARTCC AT 440-774-0490.
(ARPT STATUS) ARPT CLSD INDEFLY.

Instrument Procedures

There are no published instrument procedures at D80.

Some nearby airports with instrument procedures:

KIAG - Niagara Falls International Airport (16 nm SW)
9G3 - Akron Airport/Jesson Field (21 nm SE)
9G6 - Pine Hill Airport (22 nm SE)
KBUF - Buffalo Niagara International Airport (23 nm S)
9G0 - Buffalo Airfield (28 nm S)
 
Loc | Ops | Rwys | IFR | FBO | Links
Com | Nav | Svcs | Stats | Notes
Area around D80 (Olcott-Newfane Airport)
 
Road maps at: MapQuest Bing Google
 
Aerial photo
No photo
 
Sectional chart

 
Airport distance calculator
Flying to Olcott-Newfane Airport? Find the distance to fly.

From to D80

Sunrise and sunset
Times for 19-Oct-2019
 Local
(UTC-4)
 Zulu
(UTC)
Morning civil twilight07:0611:06
Sunrise07:3511:35
Sunset18:2522:25
Evening civil twilight18:5422:54

Current date and time
Zulu (UTC)  19-Oct-2019 13:53:23
Local (UTC-4)  19-Oct-2019 09:53:23
 
METAR
KIAG 
15nm SW 
191253Z 00000KT 5SM BR CLR 02/01 A3007 RMK AO2 SLP195 T00170011
CYSN 
21nm W 
191300Z VRB02KT 15SM FEW013 SCT230 05/05 A3007 RMK SC1CI2 SLP187
CWWZ 
22nm W 
191300Z AUTO 13005KT 08/05 RMK AO1 SLP186 T00790052 51003
KBUF 
23nm S 
191254Z 11004KT 10SM FEW030 FEW250 03/02 A3007 RMK AO2 SLP190 T00280017
KGVQ 
30nm SE 
191303Z AUTO 00000KT 6SM BR FEW002 04/03 A3008 RMK AO2
TAF
KIAG 
15nm SW 
191120Z 1912/2012 00000KT P6SM FEW250 FM191400 13004KT P6SM SCT250 FM192000 09006KT P6SM SCT250 FM200400 14006KT P6SM SCT250
NOTAMs
Click for the latest NOTAMs
NOTAMs are issued by the DoD/FAA and will open in a separate window not controlled by AirNav.

 

 
 

Would you like to see your business listed on this page?

 If your business provides an interesting product or service to pilots, flight crews, aircraft, or users of the Olcott-Newfane Airport, you should consider listing it here.  To start the listing process, click on the button below
 
Add a business
 

Other Pages about Olcott-Newfane Airport

Update a link
 
Copyright © AirNav, LLC. All rights reserved. Privacy Policy  Contact